Terminal Aerodrome Forecast
Issued by NWS Blacksburg, VA

Home | Current Version | Previous Version | Text Only | Print | Product List | Glossary On
Versions: 1 2 3 4 5 6 7 8 9 10 11 12 13 14 15
000
FTUS41 KRNK 290706 AAB
TAFDAN
TAF AMD
KDAN 290706Z 2907/3006 27004KT P6SM FEW250
      TEMPO 2908/2910 3SM BR
     FM291200 25005KT P6SM SCT250
     FM291900 28006KT P6SM BKN050
     FM300300 00000KT P6SM BKN100=

USA.gov is the U.S. government's official web portal to all federal, state and local government web resources and services.